createdAt,value
2018-09-16T00:00:03.738Z,12.17
2018-09-16T00:01:03.770Z,12.27
2018-09-16T00:02:03.802Z,12.24
2018-09-16T00:03:03.832Z,12.28
2018-09-16T00:04:03.865Z,12.23
2018-09-16T00:05:03.897Z,12.37
2018-09-16T00:06:03.926Z,12.46
2018-09-16T00:07:03.957Z,12.31
2018-09-16T00:08:03.989Z,12.37
2018-09-16T00:09:04.020Z,12.50
2018-09-16T00:10:04.062Z,12.60
2018-09-16T00:11:04.083Z,12.62
2018-09-16T00:12:04.114Z,12.79
2018-09-16T00:13:04.145Z,12.82
2018-09-16T00:14:04.176Z,12.59
2018-09-16T00:15:04.207Z,12.60
2018-09-16T00:16:04.238Z,12.59
2018-09-16T00:17:04.270Z,12.62
2018-09-16T00:18:04.301Z,12.64
2018-09-16T00:19:04.334Z,12.60
2018-09-16T00:20:04.366Z,12.64
2018-09-16T00:21:04.396Z,12.57
2018-09-16T00:22:04.426Z,12.64
2018-09-16T00:23:04.458Z,12.49
2018-09-16T00:24:04.491Z,12.37
2018-09-16T00:25:04.522Z,12.27
2018-09-16T00:26:04.552Z,12.16
2018-09-16T00:27:04.582Z,12.29
2018-09-16T00:28:04.614Z,12.31
2018-09-16T00:29:04.643Z,12.17
2018-09-16T00:30:04.675Z,12.19
2018-09-16T00:31:04.706Z,12.24
2018-09-16T00:32:04.738Z,12.27
2018-09-16T00:33:04.769Z,12.37
2018-09-16T00:34:04.809Z,12.46
2018-09-16T00:35:04.831Z,12.53
2018-09-16T00:36:04.863Z,12.52
2018-09-16T00:37:04.893Z,12.45
2018-09-16T00:38:04.925Z,12.60
2018-09-16T00:39:04.955Z,12.60
2018-09-16T00:40:04.987Z,12.57
2018-09-16T00:41:05.019Z,12.59
2018-09-16T00:42:05.050Z,12.64
2018-09-16T00:43:05.082Z,12.49
2018-09-16T00:44:05.112Z,12.59
2018-09-16T00:45:05.147Z,12.70
2018-09-16T00:46:05.174Z,12.72
2018-09-16T00:47:05.206Z,12.65
2018-09-16T00:48:05.239Z,12.67
2018-09-16T00:49:05.269Z,12.72
2018-09-16T00:50:05.301Z,12.60
2018-09-16T00:51:05.329Z,12.47
2018-09-16T00:52:05.361Z,12.57
2018-09-16T00:53:05.393Z,12.59
2018-09-16T00:54:05.424Z,12.57
2018-09-16T00:55:05.453Z,12.72
2018-09-16T00:56:05.483Z,12.65
2018-09-16T00:57:05.516Z,12.62
2018-09-16T00:58:05.547Z,12.72
2018-09-16T00:59:05.577Z,12.72
2018-09-16T01:00:05.609Z,12.54
2018-09-16T01:01:05.641Z,12.57
2018-09-16T01:02:05.673Z,12.50
2018-09-16T01:03:05.706Z,12.54
2018-09-16T01:04:05.733Z,12.60
2018-09-16T01:05:05.764Z,12.56
2018-09-16T01:06:05.796Z,12.65
2018-09-16T01:07:05.827Z,12.67
2018-09-16T01:08:05.858Z,12.74
2018-09-16T01:09:05.890Z,12.71
2018-09-16T01:10:05.921Z,12.68
2018-09-16T01:11:05.951Z,12.70
2018-09-16T01:12:05.982Z,12.72
2018-09-16T01:13:06.014Z,12.79
2018-09-16T01:14:06.047Z,12.65
2018-09-16T01:15:06.077Z,12.68
2018-09-16T01:16:06.105Z,12.67
2018-09-16T01:17:06.137Z,12.57
2018-09-16T01:18:06.169Z,12.60
2018-09-16T01:19:06.199Z,12.49
2018-09-16T01:20:06.231Z,12.53
2018-09-16T01:21:06.262Z,12.52
2018-09-16T01:22:06.333Z,12.52
2018-09-16T01:23:06.326Z,12.52
2018-09-16T01:24:06.355Z,12.49
2018-09-16T01:25:06.387Z,12.52
2018-09-16T01:26:06.418Z,12.56
2018-09-16T01:27:06.448Z,12.57
2018-09-16T01:28:06.479Z,12.74
2018-09-16T01:29:06.516Z,12.70
2018-09-16T01:30:06.544Z,12.62
2018-09-16T01:31:06.573Z,12.74
2018-09-16T01:32:06.603Z,12.60
2018-09-16T01:33:06.635Z,12.70
2018-09-16T01:34:06.666Z,12.62
2018-09-16T01:35:06.697Z,12.52
2018-09-16T01:36:06.729Z,12.32
2018-09-16T01:37:06.759Z,12.31
2018-09-16T01:38:06.794Z,12.28
2018-09-16T01:39:06.821Z,12.23
2018-09-16T01:40:06.852Z,12.38
2018-09-16T01:41:06.884Z,12.37
2018-09-16T01:42:06.914Z,12.34
2018-09-16T01:43:06.945Z,12.42
2018-09-16T01:44:06.978Z,12.31
2018-09-16T01:45:07.008Z,12.39
2018-09-16T01:46:07.039Z,12.31
2018-09-16T01:47:07.072Z,12.28
2018-09-16T01:48:07.102Z,12.32
2018-09-16T01:49:07.132Z,12.32
2018-09-16T01:50:07.163Z,12.32
2018-09-16T01:51:07.193Z,12.45
2018-09-16T01:52:07.226Z,12.47
2018-09-16T01:53:07.256Z,12.47
2018-09-16T01:54:07.287Z,12.34
2018-09-16T01:55:07.317Z,12.35
2018-09-16T01:56:07.349Z,12.29
2018-09-16T01:57:07.381Z,12.35
2018-09-16T01:58:07.411Z,12.39
2018-09-16T01:59:07.442Z,12.31
2018-09-16T02:00:07.473Z,12.29
2018-09-16T02:01:07.504Z,12.28
2018-09-16T02:02:07.537Z,12.28
2018-09-16T02:03:07.566Z,12.24
2018-09-16T02:04:07.597Z,12.27
2018-09-16T02:05:07.629Z,12.19
2018-09-16T02:06:07.659Z,12.24
2018-09-16T02:07:07.690Z,12.24
2018-09-16T02:08:07.724Z,12.17
2018-09-16T02:09:07.752Z,12.27
2018-09-16T02:10:07.784Z,12.19
2018-09-16T02:11:07.815Z,12.29
2018-09-16T02:12:07.844Z,12.27
2018-09-16T02:13:07.876Z,12.20
2018-09-16T02:14:07.907Z,12.28
2018-09-16T02:15:07.938Z,12.24
2018-09-16T02:16:07.969Z,12.20
2018-09-16T02:17:08.019Z,12.19
2018-09-16T02:18:08.031Z,12.17
2018-09-16T02:19:08.063Z,12.14
2018-09-16T02:20:08.092Z,12.27
2018-09-16T02:21:08.124Z,12.34
2018-09-16T02:22:08.155Z,12.35
2018-09-16T02:23:08.185Z,12.37
2018-09-16T02:24:08.217Z,12.35
2018-09-16T02:25:08.246Z,12.37
2018-09-16T02:26:08.279Z,12.32
2018-09-16T02:27:08.309Z,12.29
2018-09-16T02:28:08.341Z,12.35
2018-09-16T02:29:08.371Z,12.32
2018-09-16T02:30:08.403Z,12.39
2018-09-16T02:31:08.433Z,12.37
2018-09-16T02:32:08.465Z,12.34
2018-09-16T02:33:08.495Z,12.20
2018-09-16T02:34:08.526Z,12.19
2018-09-16T02:35:08.557Z,12.16
2018-09-16T02:36:08.588Z,12.27
2018-09-16T02:37:08.619Z,12.09
2018-09-16T02:38:08.649Z,12.17
2018-09-16T02:39:08.682Z,12.24
2018-09-16T02:40:08.715Z,12.27
2018-09-16T02:41:08.744Z,12.27
2018-09-16T02:42:08.773Z,12.09
2018-09-16T02:43:08.806Z,11.94
2018-09-16T02:44:08.836Z,12.09
2018-09-16T02:45:08.866Z,12.01
2018-09-16T02:46:08.899Z,11.85
2018-09-16T02:47:08.928Z,11.98
2018-09-16T02:48:08.961Z,12.02
2018-09-16T02:49:08.995Z,11.90
2018-09-16T02:50:09.025Z,11.91
2018-09-16T02:51:09.051Z,11.95
2018-09-16T02:52:09.083Z,11.72
2018-09-16T02:53:09.115Z,11.82
2018-09-16T02:54:09.151Z,11.52
2018-09-16T02:55:09.176Z,11.39
2018-09-16T02:56:09.207Z,11.32
2018-09-16T02:57:09.239Z,11.21
2018-09-16T02:58:09.270Z,11.18
2018-09-16T02:59:09.300Z,11.21
2018-09-16T03:00:09.331Z,11.11
2018-09-16T03:01:09.363Z,11.18
2018-09-16T03:02:09.393Z,11.15
2018-09-16T03:03:09.425Z,11.18
2018-09-16T03:04:09.454Z,11.14
2018-09-16T03:05:09.486Z,11.15
2018-09-16T03:06:09.518Z,10.99
2018-09-16T03:07:09.548Z,11.06
2018-09-16T03:08:09.580Z,11.10
2018-09-16T03:09:09.610Z,11.14
2018-09-16T03:10:09.641Z,11.17
2018-09-16T03:11:09.671Z,11.14
2018-09-16T03:12:09.707Z,11.11
2018-09-16T03:13:09.734Z,11.06
2018-09-16T03:14:09.764Z,11.06
2018-09-16T03:15:09.795Z,11.15
2018-09-16T03:16:09.826Z,11.14
2018-09-16T03:17:09.857Z,11.15
2018-09-16T03:18:09.886Z,11.04
2018-09-16T03:19:09.920Z,11.02
2018-09-16T03:20:09.950Z,11.07
2018-09-16T03:21:09.980Z,11.06
2018-09-16T03:22:10.013Z,11.14
2018-09-16T03:23:10.043Z,10.96
2018-09-16T03:24:10.074Z,11.09
2018-09-16T03:25:10.104Z,11.02
2018-09-16T03:26:10.136Z,11.03
2018-09-16T03:27:10.164Z,11.14
2018-09-16T03:28:10.198Z,11.15
2018-09-16T03:29:10.229Z,11.10
2018-09-16T03:30:10.259Z,11.27
2018-09-16T03:31:10.292Z,11.18
2018-09-16T03:32:10.321Z,11.09
2018-09-16T03:33:10.352Z,11.28
2018-09-16T03:34:10.383Z,11.25
2018-09-16T03:35:10.412Z,11.28
2018-09-16T03:36:10.444Z,11.36
2018-09-16T03:37:10.476Z,11.32
2018-09-16T03:38:10.508Z,11.33
2018-09-16T03:39:10.536Z,11.36
2018-09-16T03:40:10.573Z,11.14
2018-09-16T03:41:10.598Z,11.18
2018-09-16T03:42:10.629Z,11.18
2018-09-16T03:43:10.660Z,11.19
2018-09-16T03:44:10.692Z,11.07
2018-09-16T03:45:10.722Z,11.00
2018-09-16T03:46:10.755Z,11.07
2018-09-16T03:47:10.781Z,11.02
2018-09-16T03:48:10.815Z,11.02
2018-09-16T03:49:10.845Z,10.91
2018-09-16T03:50:10.877Z,10.86
2018-09-16T03:51:10.911Z,10.88
2018-09-16T03:52:10.937Z,10.76
2018-09-16T03:53:10.968Z,10.79
2018-09-16T03:54:11.000Z,10.74
2018-09-16T03:55:11.030Z,10.67
2018-09-16T03:56:11.061Z,10.70
2018-09-16T03:57:11.091Z,10.71
2018-09-16T03:58:11.123Z,10.67
2018-09-16T03:59:11.152Z,10.63
2018-09-16T04:00:11.184Z,10.66
2018-09-16T04:01:11.217Z,10.63
2018-09-16T04:02:11.245Z,10.53
2018-09-16T04:03:11.275Z,10.52
2018-09-16T04:04:11.307Z,10.56
2018-09-16T04:05:11.337Z,10.61
2018-09-16T04:06:11.369Z,10.74
2018-09-16T04:07:11.399Z,10.78
2018-09-16T04:08:11.429Z,10.74
2018-09-16T04:09:11.467Z,10.74
2018-09-16T04:10:11.492Z,10.71
2018-09-16T04:11:11.524Z,10.71
2018-09-16T04:12:11.557Z,10.70
2018-09-16T04:13:11.585Z,10.79
2018-09-16T04:14:11.614Z,10.79
2018-09-16T04:15:11.645Z,10.64
2018-09-16T04:16:11.675Z,10.74
2018-09-16T04:17:11.705Z,10.82
2018-09-16T04:18:11.738Z,10.71
2018-09-16T04:19:11.767Z,10.78
2018-09-16T04:20:11.816Z,10.67
2018-09-16T04:21:11.901Z,10.82
2018-09-16T04:22:11.862Z,10.89
2018-09-16T04:23:11.890Z,10.92
2018-09-16T04:24:11.921Z,10.91
2018-09-16T04:25:11.952Z,10.84
2018-09-16T04:26:11.983Z,10.88
2018-09-16T04:27:12.013Z,10.86
2018-09-16T04:28:12.044Z,10.85
2018-09-16T04:29:12.074Z,10.68
2018-09-16T04:30:12.105Z,10.71
2018-09-16T04:31:12.134Z,10.78
2018-09-16T04:32:12.168Z,10.74
2018-09-16T04:33:12.249Z,10.61
2018-09-16T04:34:12.228Z,10.59
2018-09-16T04:35:12.257Z,10.68
2018-09-16T04:36:12.289Z,10.76
2018-09-16T04:37:12.321Z,10.86
2018-09-16T04:38:12.350Z,10.79
2018-09-16T04:39:12.383Z,10.78
2018-09-16T04:40:12.411Z,10.66
2018-09-16T04:41:12.445Z,10.66
2018-09-16T04:42:12.474Z,10.67
2018-09-16T04:43:12.502Z,10.70
2018-09-16T04:44:12.533Z,10.68
2018-09-16T04:45:12.563Z,10.73
2018-09-16T04:46:12.596Z,10.63
2018-09-16T04:47:12.629Z,10.71
2018-09-16T04:48:12.659Z,10.67
2018-09-16T04:49:12.687Z,10.64
2018-09-16T04:50:12.717Z,10.68
2018-09-16T04:51:12.748Z,10.52
2018-09-16T04:52:12.777Z,10.59
2018-09-16T04:53:12.808Z,10.55
2018-09-16T04:54:12.838Z,10.44
2018-09-16T04:55:12.868Z,10.51
2018-09-16T04:56:12.899Z,10.40
2018-09-16T04:57:12.929Z,10.33
2018-09-16T04:58:12.964Z,10.32
2018-09-16T04:59:12.990Z,10.40
2018-09-16T05:00:13.022Z,10.38
2018-09-16T05:01:13.124Z,10.26
2018-09-16T05:02:13.082Z,10.26
2018-09-16T05:03:13.112Z,10.12
2018-09-16T05:04:13.143Z,10.15
2018-09-16T05:05:13.173Z,10.08
2018-09-16T05:06:13.204Z,10.12
2018-09-16T05:07:13.236Z,10.17
2018-09-16T05:08:13.264Z,10.22
2018-09-16T05:09:13.296Z,10.29
2018-09-16T05:10:13.325Z,10.22
2018-09-16T05:11:13.355Z,10.15
2018-09-16T05:12:13.388Z,10.17
2018-09-16T05:13:13.418Z,10.05
2018-09-16T05:14:13.448Z,10.25
2018-09-16T05:15:13.478Z,10.18
2018-09-16T05:16:13.509Z,10.26
2018-09-16T05:17:13.539Z,10.32
2018-09-16T05:18:13.569Z,10.27
2018-09-16T05:19:13.598Z,10.32
2018-09-16T05:20:13.629Z,10.30
2018-09-16T05:21:13.660Z,10.33
2018-09-16T05:22:13.691Z,10.29
2018-09-16T05:23:13.724Z,10.34
2018-09-16T05:24:13.751Z,10.32
2018-09-16T05:25:13.782Z,10.32
2018-09-16T05:26:13.812Z,10.30
2018-09-16T05:27:13.845Z,10.27
2018-09-16T05:28:13.874Z,10.41
2018-09-16T05:29:13.907Z,10.48
2018-09-16T05:30:13.935Z,10.59
2018-09-16T05:31:14.016Z,10.60
2018-09-16T05:32:13.996Z,10.56
2018-09-16T05:33:14.025Z,10.61
2018-09-16T05:34:14.056Z,10.52
2018-09-16T05:35:14.086Z,10.47
2018-09-16T05:36:14.116Z,10.53
2018-09-16T05:37:14.148Z,10.60
2018-09-16T05:38:14.177Z,10.59
2018-09-16T05:39:14.207Z,10.78
2018-09-16T05:40:14.238Z,10.79
2018-09-16T05:41:14.270Z,10.82
2018-09-16T05:42:14.301Z,10.91
2018-09-16T05:43:14.332Z,10.96
2018-09-16T05:44:14.360Z,11.02
2018-09-16T05:45:14.390Z,11.00
2018-09-16T05:46:14.426Z,11.04
2018-09-16T05:47:14.453Z,11.09
2018-09-16T05:48:14.483Z,11.00
2018-09-16T05:49:14.514Z,11.07
2018-09-16T05:50:14.544Z,11.14
2018-09-16T05:51:14.575Z,11.10
2018-09-16T05:52:14.605Z,11.10
2018-09-16T05:53:14.729Z,11.17
2018-09-16T05:54:14.666Z,11.18
2018-09-16T05:55:14.698Z,11.14
2018-09-16T05:56:14.728Z,11.25
2018-09-16T05:57:14.759Z,11.29
2018-09-16T05:58:14.791Z,11.32
2018-09-16T05:59:14.865Z,11.39
2018-09-16T06:00:14.852Z,11.27
2018-09-16T06:01:14.886Z,11.32
2018-09-16T06:02:14.914Z,11.28
2018-09-16T06:03:14.951Z,11.36
2018-09-16T06:04:14.976Z,11.33
2018-09-16T06:05:15.009Z,11.42
2018-09-16T06:06:15.039Z,11.44
2018-09-16T06:07:15.067Z,11.43
2018-09-16T06:08:15.099Z,11.44
2018-09-16T06:09:15.129Z,11.49
2018-09-16T06:10:15.161Z,11.43
2018-09-16T06:11:15.191Z,11.61
2018-09-16T06:12:15.221Z,11.61
2018-09-16T06:13:15.252Z,11.83
2018-09-16T06:14:15.285Z,11.94
2018-09-16T06:15:15.314Z,12.13
2018-09-16T06:16:15.347Z,12.27
2018-09-16T06:17:15.376Z,12.31
2018-09-16T06:18:15.409Z,12.34
2018-09-16T06:19:15.438Z,12.34
2018-09-16T06:20:15.471Z,12.52
2018-09-16T06:21:15.502Z,12.62
2018-09-16T06:22:15.537Z,12.71
2018-09-16T06:23:15.564Z,12.79
2018-09-16T06:24:15.595Z,12.90
2018-09-16T06:25:15.626Z,12.92
2018-09-16T06:26:15.658Z,12.97
2018-09-16T06:27:15.689Z,13.12
2018-09-16T06:28:15.720Z,13.26
2018-09-16T06:29:15.751Z,13.22
2018-09-16T06:30:15.784Z,13.29
2018-09-16T06:31:15.815Z,13.33
2018-09-16T06:32:15.846Z,13.39
2018-09-16T06:33:15.876Z,13.44
2018-09-16T06:34:15.909Z,13.49
2018-09-16T06:35:17.142Z,13.55
2018-09-16T06:36:15.975Z,13.63
2018-09-16T06:37:16.002Z,13.55
2018-09-16T06:38:16.035Z,13.69
2018-09-16T06:39:16.066Z,13.62
2018-09-16T06:40:16.100Z,13.48
2018-09-16T06:41:16.173Z,13.44
2018-09-16T06:42:16.162Z,13.41
2018-09-16T06:43:16.194Z,13.39
2018-09-16T06:44:16.224Z,13.38
2018-09-16T06:45:16.259Z,13.44
2018-09-16T06:46:16.289Z,13.64
2018-09-16T06:47:16.320Z,13.77
2018-09-16T06:48:16.352Z,13.82
2018-09-16T06:49:16.385Z,13.89
2018-09-16T06:50:16.417Z,14.04
2018-09-16T06:51:16.449Z,14.10
2018-09-16T06:52:16.480Z,14.12
2018-09-16T06:53:16.516Z,14.24
2018-09-16T06:54:16.545Z,14.14
2018-09-16T06:55:16.576Z,14.33
2018-09-16T06:56:16.609Z,14.37
2018-09-16T06:57:16.641Z,14.42
2018-09-16T06:58:16.672Z,14.54
2018-09-16T06:59:16.707Z,14.36
2018-09-16T07:00:16.740Z,14.40
2018-09-16T07:01:16.769Z,14.40
2018-09-16T07:02:16.804Z,14.36
2018-09-16T07:03:16.835Z,14.39
2018-09-16T07:04:16.867Z,14.37
2018-09-16T07:05:16.900Z,14.35
2018-09-16T07:06:16.937Z,14.50
2018-09-16T07:07:16.964Z,14.50
2018-09-16T07:08:17.057Z,14.60
2018-09-16T07:09:17.030Z,14.51
2018-09-16T07:10:17.063Z,14.69
2018-09-16T07:11:17.094Z,14.69
2018-09-16T07:12:17.129Z,14.75
2018-09-16T07:13:17.160Z,14.89
2018-09-16T07:14:17.243Z,14.89
2018-09-16T07:15:17.228Z,14.99
2018-09-16T07:16:17.258Z,14.94
2018-09-16T07:17:17.294Z,15.07
2018-09-16T07:18:17.326Z,15.21
2018-09-16T07:19:17.356Z,15.16
2018-09-16T07:20:17.558Z,15.29
2018-09-16T07:21:17.423Z,15.35
2018-09-16T07:22:17.456Z,15.41
2018-09-16T07:23:17.491Z,15.41
2018-09-16T07:24:17.524Z,15.50
2018-09-16T07:25:17.555Z,15.43
2018-09-16T07:26:17.589Z,15.46
2018-09-16T07:27:17.635Z,15.49
2018-09-16T07:28:17.655Z,15.59
2018-09-16T07:29:17.688Z,15.49
2018-09-16T07:30:17.722Z,15.53
2018-09-16T07:31:17.755Z,15.64
2018-09-16T07:32:17.788Z,15.78
2018-09-16T07:33:17.821Z,15.84
2018-09-16T07:34:17.856Z,15.82
2018-09-16T07:35:17.888Z,15.87
2018-09-16T07:36:17.922Z,15.96
2018-09-16T07:37:17.956Z,16.17
2018-09-16T07:38:17.990Z,16.25
2018-09-16T07:39:18.023Z,16.34
2018-09-16T07:40:18.058Z,16.38
2018-09-16T07:41:18.093Z,16.30
2018-09-16T07:42:18.125Z,16.35
2018-09-16T07:43:18.158Z,16.39
2018-09-16T07:44:18.193Z,16.53
2018-09-16T07:45:18.235Z,16.46
2018-09-16T07:46:18.260Z,16.48
2018-09-16T07:47:18.363Z,16.67
2018-09-16T07:48:18.330Z,16.70
2018-09-16T07:49:18.362Z,16.81
2018-09-16T07:50:18.397Z,16.91
2018-09-16T07:51:18.429Z,17.14
2018-09-16T07:52:18.464Z,17.19
2018-09-16T07:53:18.510Z,17.12
2018-09-16T07:54:18.534Z,17.19
2018-09-16T07:55:18.566Z,17.16
2018-09-16T07:56:18.602Z,17.22
2018-09-16T07:57:18.637Z,17.37
2018-09-16T07:58:18.672Z,17.44
2018-09-16T07:59:18.706Z,17.48
2018-09-16T08:00:18.740Z,17.36
2018-09-16T08:01:18.775Z,17.36
2018-09-16T08:02:18.810Z,17.41
2018-09-16T08:03:18.845Z,17.51
2018-09-16T08:04:18.881Z,17.51
2018-09-16T08:05:18.914Z,17.58
2018-09-16T08:06:19.093Z,17.55
2018-09-16T08:07:18.984Z,17.63
2018-09-16T08:08:19.019Z,17.63
2018-09-16T08:09:19.054Z,17.68
2018-09-16T08:10:19.091Z,17.75
2018-09-16T08:11:19.124Z,17.89
2018-09-16T08:12:19.161Z,17.97
2018-09-16T08:13:19.194Z,18.10
2018-09-16T08:14:19.231Z,18.10
2018-09-16T08:15:19.265Z,18.14
2018-09-16T08:16:19.301Z,18.10
2018-09-16T08:17:19.336Z,18.10
2018-09-16T08:18:19.372Z,18.25
2018-09-16T08:19:19.406Z,18.32
2018-09-16T08:20:19.443Z,18.37
2018-09-16T08:21:19.519Z,18.50
2018-09-16T08:22:19.521Z,18.44
2018-09-16T08:23:19.549Z,18.42
2018-09-16T08:24:19.623Z,18.55
2018-09-16T08:25:19.623Z,18.58
2018-09-16T08:26:19.658Z,18.60
2018-09-16T08:27:19.692Z,18.76
2018-09-16T08:28:19.734Z,18.78
2018-09-16T08:29:19.763Z,18.99
2018-09-16T08:30:19.806Z,18.92
2018-09-16T08:31:19.836Z,19.13
2018-09-16T08:32:19.872Z,19.19
2018-09-16T08:33:19.908Z,19.25
2018-09-16T08:34:19.948Z,19.14
2018-09-16T08:35:19.980Z,19.33
2018-09-16T08:36:20.017Z,19.37
2018-09-16T08:37:20.054Z,19.44
2018-09-16T08:38:20.090Z,19.50
2018-09-16T08:39:20.128Z,19.51
2018-09-16T08:40:20.162Z,19.58
2018-09-16T08:41:20.201Z,19.41
2018-09-16T08:42:20.237Z,19.73
2018-09-16T08:43:20.273Z,19.76
2018-09-16T08:44:20.310Z,19.95
2018-09-16T08:45:20.346Z,20.02
2018-09-16T08:46:20.385Z,20.20
2018-09-16T08:47:20.418Z,20.20
2018-09-16T08:48:20.457Z,20.84
2018-09-16T08:49:20.493Z,21.27
2018-09-16T08:50:20.530Z,21.91
2018-09-16T08:51:20.567Z,22.85
2018-09-16T08:52:20.727Z,23.69
2018-09-16T08:53:20.643Z,24.65
2018-09-16T08:54:20.684Z,25.25
2018-09-16T08:55:20.718Z,25.24
2018-09-16T08:56:20.806Z,25.62
2018-09-16T08:57:20.796Z,26.80
2018-09-16T08:58:20.998Z,27.00
2018-09-16T08:59:20.873Z,27.79
2018-09-16T09:00:20.913Z,28.29
2018-09-16T09:01:22.167Z,28.88
2018-09-16T09:02:20.994Z,27.93
2018-09-16T09:04:03.590Z,28.22
2018-09-16T09:05:03.627Z,28.41
2018-09-16T09:06:03.669Z,28.59
2018-09-16T09:07:03.709Z,29.34
2018-09-16T09:08:03.751Z,28.34
2018-09-16T09:09:03.794Z,27.59
2018-09-16T09:10:03.836Z,28.62
2018-09-16T09:11:03.876Z,28.49
2018-09-16T09:12:03.919Z,27.97
2018-09-16T09:13:03.962Z,27.84
2018-09-16T09:14:04.006Z,28.25
2018-09-16T09:15:04.046Z,28.55
2018-09-16T09:16:04.088Z,29.05
2018-09-16T09:17:04.139Z,28.73
2018-09-16T09:18:04.175Z,29.05
2018-09-16T09:19:04.218Z,29.39
2018-09-16T09:20:04.264Z,28.86
2018-09-16T09:21:04.308Z,29.43
2018-09-16T09:22:04.350Z,28.98
2018-09-16T09:23:04.393Z,28.41
2018-09-16T09:24:04.462Z,28.73
2018-09-16T09:25:04.483Z,28.96
2018-09-16T09:26:04.526Z,29.53
2018-09-16T09:27:04.570Z,29.80
2018-09-16T09:28:04.615Z,29.89
2018-09-16T09:29:04.757Z,29.53
2018-09-16T09:30:04.704Z,29.71
2018-09-16T09:31:04.748Z,29.94
2018-09-16T09:32:04.794Z,28.96
2018-09-16T09:33:04.839Z,29.27
2018-09-16T09:34:04.889Z,29.48
2018-09-16T09:35:04.930Z,30.45
2018-09-16T09:36:04.976Z,31.02
2018-09-16T09:37:05.023Z,31.17
2018-09-16T09:40:05.159Z,31.57
2018-09-16T09:41:08.434Z,31.48
2018-09-16T09:42:05.250Z,31.13
2018-09-16T09:45:28.008Z,32.07
2018-09-16T09:46:28.279Z,31.73
2018-09-16T09:47:28.102Z,32.23
2018-09-16T09:48:28.149Z,31.47
2018-09-16T09:49:28.194Z,30.54
2018-09-16T09:50:28.571Z,31.02
2018-09-16T09:51:28.288Z,31.81
2018-09-16T09:52:28.336Z,31.68
2018-09-16T09:53:28.445Z,32.28
2018-09-16T09:54:28.456Z,32.04
2018-09-16T09:55:28.498Z,31.29
2018-09-16T09:56:28.853Z,32.06
2018-09-16T09:57:28.571Z,31.88
2018-09-16T09:58:28.620Z,32.50
2018-09-16T09:59:28.722Z,32.63
2018-09-16T10:00:28.713Z,32.50
2018-09-16T10:01:28.761Z,31.88
2018-09-16T10:02:28.810Z,33.21
2018-09-16T10:03:28.857Z,34.49
2018-09-16T10:04:28.907Z,34.82
2018-09-16T10:05:28.954Z,34.73
2018-09-16T10:06:29.003Z,34.08
2018-09-16T10:07:29.051Z,32.62
2018-09-16T10:08:29.099Z,32.62
2018-09-16T10:09:29.147Z,32.38
2018-09-16T10:10:29.199Z,32.78
2018-09-16T10:11:29.473Z,32.63
2018-09-16T10:12:29.293Z,32.79
2018-09-16T10:13:29.343Z,32.51
2018-09-16T10:14:29.466Z,32.08
2018-09-16T10:15:29.440Z,32.89
2018-09-16T10:16:29.491Z,32.62
2018-09-16T10:17:29.539Z,33.49
2018-09-16T10:18:29.591Z,33.14
2018-09-16T10:19:29.637Z,33.84
2018-09-16T10:20:29.690Z,32.07
2018-09-16T10:21:29.745Z,32.23
2018-09-16T10:22:29.810Z,32.72
2018-09-16T10:23:29.833Z,32.26
2018-09-16T10:24:30.039Z,32.56
2018-09-16T10:25:29.934Z,32.78
2018-09-16T10:26:29.985Z,31.92
2018-09-16T10:27:30.034Z,32.57
2018-09-16T10:28:30.083Z,32.28
2018-09-16T10:29:30.133Z,32.37
2018-09-16T10:30:30.182Z,32.57
2018-09-16T10:31:30.234Z,32.70
2018-09-16T10:32:30.283Z,32.75
2018-09-16T10:33:30.332Z,32.40
2018-09-16T10:34:30.381Z,32.44
2018-09-16T10:35:30.430Z,32.93
2018-09-16T10:36:30.480Z,32.65
2018-09-16T10:37:30.530Z,32.69
2018-09-16T10:38:30.657Z,32.11
2018-09-16T10:39:30.630Z,32.40
2018-09-16T10:40:30.682Z,32.40
2018-09-16T10:41:30.730Z,31.89
2018-09-16T10:42:30.779Z,32.14
2018-09-16T10:43:30.830Z,32.40
2018-09-16T10:44:30.879Z,33.03
2018-09-16T10:45:30.929Z,33.71
2018-09-16T10:46:30.981Z,34.62
2018-09-16T10:47:31.028Z,34.82
2018-09-16T10:48:31.085Z,34.70
2018-09-16T10:49:31.129Z,34.69
2018-09-16T10:50:31.179Z,34.54
2018-09-16T10:51:31.230Z,34.92
2018-09-16T10:52:31.282Z,34.39
2018-09-16T10:53:31.329Z,33.87
2018-09-16T10:54:31.381Z,32.74
2018-09-16T10:55:31.430Z,32.59
2018-09-16T10:56:31.482Z,32.93
2018-09-16T10:57:31.531Z,33.44
2018-09-16T10:58:31.582Z,32.10
2018-09-16T10:59:31.633Z,32.89
2018-09-16T11:00:31.683Z,33.16
2018-09-16T11:01:31.735Z,33.91
2018-09-16T11:02:31.786Z,33.93
2018-09-16T11:03:31.836Z,34.00
2018-09-16T11:04:31.890Z,34.44
2018-09-16T11:05:31.936Z,34.34
2018-09-16T11:06:31.987Z,34.62
2018-09-16T11:07:32.059Z,35.29
2018-09-16T11:08:32.115Z,35.56
2018-09-16T11:09:35.975Z,35.33
2018-09-16T11:10:32.191Z,35.59
2018-09-16T11:11:32.240Z,36.23
2018-09-16T11:12:32.291Z,35.93
2018-09-16T11:13:32.343Z,35.60
2018-09-16T11:14:32.394Z,35.04
2018-09-16T11:15:32.444Z,34.87
2018-09-16T11:16:32.496Z,34.56
2018-09-16T11:17:32.549Z,33.90
2018-09-16T11:18:32.599Z,34.89
2018-09-16T11:19:32.650Z,35.56
2018-09-16T11:20:32.702Z,35.44
2018-09-16T11:21:32.753Z,34.06
2018-09-16T11:22:32.805Z,33.82
2018-09-16T11:23:32.875Z,34.05
2018-09-16T11:24:32.908Z,34.58
2018-09-16T11:25:33.290Z,33.88
2018-09-16T11:26:33.011Z,34.25
2018-09-16T11:27:33.085Z,34.32
2018-09-16T11:28:33.115Z,34.70
2018-09-16T11:29:33.164Z,34.06
2018-09-16T11:30:33.216Z,35.09
2018-09-16T11:31:33.595Z,35.40
2018-09-16T11:32:33.317Z,34.06
2018-09-16T11:33:33.699Z,33.86
2018-09-16T11:34:33.421Z,34.32
2018-09-16T11:35:33.522Z,34.66
2018-09-16T11:36:33.524Z,35.26
2018-09-16T11:37:33.576Z,34.75
2018-09-16T11:38:33.627Z,35.14
2018-09-16T11:39:33.683Z,34.00
2018-09-16T11:40:33.731Z,34.24
2018-09-16T11:41:33.783Z,34.66
2018-09-16T11:42:33.835Z,34.82
2018-09-16T11:43:33.886Z,34.91
2018-09-16T11:44:33.937Z,34.69
2018-09-16T11:45:33.991Z,33.98
2018-09-16T11:46:34.042Z,33.82
2018-09-16T11:47:34.093Z,33.88
2018-09-16T11:48:34.144Z,35.16
2018-09-16T11:49:34.196Z,36.16
2018-09-16T11:50:34.248Z,36.69
2018-09-16T11:51:34.347Z,35.77
2018-09-16T11:52:34.351Z,35.81
2018-09-16T11:53:34.403Z,35.22
2018-09-16T11:54:34.455Z,36.32
2018-09-16T11:55:34.504Z,36.60
2018-09-16T11:56:34.557Z,36.44
2018-09-16T11:57:34.607Z,36.05
2018-09-16T11:58:34.661Z,36.27
2018-09-16T11:59:34.710Z,34.44
2018-09-16T12:00:34.762Z,34.53
2018-09-16T12:01:34.814Z,35.72
2018-09-16T12:02:34.864Z,36.29
2018-09-16T12:03:34.916Z,35.60
2018-09-16T12:04:34.973Z,35.97
2018-09-16T12:05:35.019Z,35.56
2018-09-16T12:06:35.074Z,35.09
2018-09-16T12:07:35.121Z,35.56
2018-09-16T12:08:35.174Z,34.82
2018-09-16T12:09:35.223Z,34.89
2018-09-16T12:10:35.275Z,35.09
2018-09-16T12:11:35.327Z,34.62
2018-09-16T12:12:35.377Z,35.22
2018-09-16T12:13:35.472Z,35.34
2018-09-16T12:14:35.483Z,36.03
2018-09-16T12:15:35.533Z,35.84
2018-09-16T12:16:35.580Z,36.84
2018-09-16T12:17:35.634Z,37.25
2018-09-16T12:18:35.684Z,37.37
2018-09-16T12:19:35.738Z,36.35
2018-09-16T12:20:35.789Z,36.46
2018-09-16T12:21:35.839Z,36.37
2018-09-16T12:22:35.891Z,36.72
2018-09-16T12:23:35.940Z,36.68
2018-09-16T12:24:35.993Z,35.45
2018-09-16T12:25:36.045Z,35.29
2018-09-16T12:26:36.098Z,35.81
2018-09-16T12:27:36.148Z,35.87
2018-09-16T12:28:36.200Z,35.89
2018-09-16T12:29:36.254Z,36.27
2018-09-16T12:30:36.305Z,36.65
2018-09-16T12:31:36.356Z,37.13
2018-09-16T12:32:36.414Z,36.98
2018-09-16T12:33:36.460Z,36.64
2018-09-16T12:34:36.512Z,34.70
2018-09-16T12:35:36.565Z,34.58
2018-09-16T12:36:36.616Z,35.25
2018-09-16T12:37:36.669Z,35.26
2018-09-16T12:38:36.719Z,35.29
2018-09-16T12:39:36.771Z,34.99
2018-09-16T12:40:36.824Z,34.75
2018-09-16T12:41:36.876Z,35.47
2018-09-16T12:42:36.929Z,34.99
2018-09-16T12:43:36.977Z,34.54
2018-09-16T12:44:37.029Z,34.54
2018-09-16T12:45:37.082Z,34.31
2018-09-16T12:46:37.132Z,34.49
2018-09-16T12:47:37.183Z,34.65
2018-09-16T12:48:37.234Z,34.49
2018-09-16T12:49:37.285Z,34.96
2018-09-16T12:50:37.336Z,34.40
2018-09-16T12:51:37.388Z,33.88
2018-09-16T12:53:37.489Z,32.10
2018-09-16T12:54:37.540Z,32.59
2018-09-16T12:55:37.588Z,32.62
2018-09-16T12:56:37.642Z,32.19
2018-09-16T12:57:37.689Z,32.23
2018-09-16T12:58:37.739Z,32.57